sensor_id;sensor_type;location;lat;lon;timestamp;P1;durP1;ratioP1;P2;durP2;ratioP2
54641;SDS011;40536;53.194;5.728;2022-07-23T00:02:17;54.22;;;51.33;;
54641;SDS011;40536;53.194;5.728;2022-07-23T00:04:42;57.47;;;54.20;;
54641;SDS011;40536;53.194;5.728;2022-07-23T00:07:08;59.20;;;56.28;;
54641;SDS011;40536;53.194;5.728;2022-07-23T00:09:34;63.38;;;60.20;;
54641;SDS011;40536;53.194;5.728;2022-07-23T00:11:59;45.47;;;43.13;;
54641;SDS011;40536;53.194;5.728;2022-07-23T00:14:25;63.75;;;60.03;;
54641;SDS011;40536;53.194;5.728;2022-07-23T00:16:50;45.58;;;43.17;;
54641;SDS011;40536;53.194;5.728;2022-07-23T00:19:16;58.22;;;55.35;;
54641;SDS011;40536;53.194;5.728;2022-07-23T00:21:42;64.25;;;61.00;;
54641;SDS011;40536;53.194;5.728;2022-07-23T00:24:07;74.55;;;70.85;;
54641;SDS011;40536;53.194;5.728;2022-07-23T00:26:33;77.78;;;74.10;;
54641;SDS011;40536;53.194;5.728;2022-07-23T00:28:59;76.43;;;72.15;;
54641;SDS011;40536;53.194;5.728;2022-07-23T00:31:24;82.32;;;78.43;;
54641;SDS011;40536;53.194;5.728;2022-07-23T00:33:50;79.43;;;75.60;;
54641;SDS011;40536;53.194;5.728;2022-07-23T00:36:15;78.18;;;74.50;;
54641;SDS011;40536;53.194;5.728;2022-07-23T00:38:41;75.20;;;71.50;;
54641;SDS011;40536;53.194;5.728;2022-07-23T00:41:07;73.30;;;69.80;;
54641;SDS011;40536;53.194;5.728;2022-07-23T00:43:32;75.90;;;72.20;;
54641;SDS011;40536;53.194;5.728;2022-07-23T00:45:58;75.68;;;71.97;;
54641;SDS011;40536;53.194;5.728;2022-07-23T00:48:25;78.07;;;74.15;;
54641;SDS011;40536;53.194;5.728;2022-07-23T00:50:50;75.40;;;71.65;;
54641;SDS011;40536;53.194;5.728;2022-07-23T00:53:16;74.72;;;71.03;;
54641;SDS011;40536;53.194;5.728;2022-07-23T00:55:42;72.57;;;68.85;;
54641;SDS011;40536;53.194;5.728;2022-07-23T00:58:08;64.95;;;61.50;;
54641;SDS011;40536;53.194;5.728;2022-07-23T01:00:34;44.05;;;41.38;;
54641;SDS011;40536;53.194;5.728;2022-07-23T01:03:00;50.72;;;48.00;;
54641;SDS011;40536;53.194;5.728;2022-07-23T01:05:25;40.65;;;38.47;;
54641;SDS011;40536;53.194;5.728;2022-07-23T01:07:51;43.33;;;41.13;;
54641;SDS011;40536;53.194;5.728;2022-07-23T01:10:17;49.90;;;47.15;;
54641;SDS011;40536;53.194;5.728;2022-07-23T01:13:03;47.92;;;45.35;;
54641;SDS011;40536;53.194;5.728;2022-07-23T01:15:30;47.25;;;44.70;;
54641;SDS011;40536;53.194;5.728;2022-07-23T01:17:56;32.17;;;30.27;;
54641;SDS011;40536;53.194;5.728;2022-07-23T01:20:22;36.90;;;34.88;;
54641;SDS011;40536;53.194;5.728;2022-07-23T01:22:48;19.40;;;17.90;;
54641;SDS011;40536;53.194;5.728;2022-07-23T01:25:14;18.73;;;17.45;;
54641;SDS011;40536;53.194;5.728;2022-07-23T01:27:40;19.90;;;18.65;;
54641;SDS011;40536;53.194;5.728;2022-07-23T01:30:06;21.50;;;20.13;;
54641;SDS011;40536;53.194;5.728;2022-07-23T01:32:32;26.40;;;24.73;;
54641;SDS011;40536;53.194;5.728;2022-07-23T01:34:58;25.67;;;23.92;;
54641;SDS011;40536;53.194;5.728;2022-07-23T01:37:23;26.83;;;25.33;;
54641;SDS011;40536;53.194;5.728;2022-07-23T01:39:49;32.35;;;30.65;;
54641;SDS011;40536;53.194;5.728;2022-07-23T01:42:15;30.52;;;28.88;;
54641;SDS011;40536;53.194;5.728;2022-07-23T01:44:40;38.30;;;36.00;;
54641;SDS011;40536;53.194;5.728;2022-07-23T01:47:06;53.03;;;50.42;;
54641;SDS011;40536;53.194;5.728;2022-07-23T01:49:32;60.33;;;57.42;;
54641;SDS011;40536;53.194;5.728;2022-07-23T01:51:57;68.35;;;65.15;;
54641;SDS011;40536;53.194;5.728;2022-07-23T01:54:30;254.35;;;242.20;;
54641;SDS011;40536;53.194;5.728;2022-07-23T01:56:57;155.27;;;148.18;;
54641;SDS011;40536;53.194;5.728;2022-07-23T01:59:24;388.23;;;368.55;;
54641;SDS011;40536;53.194;5.728;2022-07-23T02:01:50;300.67;;;286.67;;
54641;SDS011;40536;53.194;5.728;2022-07-23T02:04:16;300.02;;;286.40;;
54641;SDS011;40536;53.194;5.728;2022-07-23T02:06:42;293.98;;;280.48;;
54641;SDS011;40536;53.194;5.728;2022-07-23T02:09:08;114.22;;;108.82;;
54641;SDS011;40536;53.194;5.728;2022-07-23T02:11:34;73.97;;;70.18;;
54641;SDS011;40536;53.194;5.728;2022-07-23T02:13:59;65.80;;;62.58;;
54641;SDS011;40536;53.194;5.728;2022-07-23T02:16:25;57.40;;;54.20;;
54641;SDS011;40536;53.194;5.728;2022-07-23T02:18:50;48.95;;;46.15;;
54641;SDS011;40536;53.194;5.728;2022-07-23T02:21:16;47.35;;;44.75;;
54641;SDS011;40536;53.194;5.728;2022-07-23T02:23:42;40.00;;;37.65;;
54641;SDS011;40536;53.194;5.728;2022-07-23T02:26:07;35.05;;;32.95;;
54641;SDS011;40536;53.194;5.728;2022-07-23T02:28:33;36.17;;;33.78;;
54641;SDS011;40536;53.194;5.728;2022-07-23T02:30:58;36.65;;;33.42;;
54641;SDS011;40536;53.194;5.728;2022-07-23T02:33:24;37.30;;;35.17;;
54641;SDS011;40536;53.194;5.728;2022-07-23T02:35:50;31.38;;;29.52;;
54641;SDS011;40536;53.194;5.728;2022-07-23T02:38:15;32.15;;;29.85;;
54641;SDS011;40536;53.194;5.728;2022-07-23T02:40:41;36.67;;;34.55;;
54641;SDS011;40536;53.194;5.728;2022-07-23T02:43:07;38.63;;;36.33;;
54641;SDS011;40536;53.194;5.728;2022-07-23T02:45:32;36.80;;;34.70;;
54641;SDS011;40536;53.194;5.728;2022-07-23T02:47:58;33.97;;;32.17;;
54641;SDS011;40536;53.194;5.728;2022-07-23T02:50:24;41.55;;;39.25;;
54641;SDS011;40536;53.194;5.728;2022-07-23T02:52:50;33.35;;;31.15;;
54641;SDS011;40536;53.194;5.728;2022-07-23T02:55:16;36.25;;;34.25;;
54641;SDS011;40536;53.194;5.728;2022-07-23T02:57:41;39.53;;;37.38;;
54641;SDS011;40536;53.194;5.728;2022-07-23T03:00:07;37.83;;;35.67;;
54641;SDS011;40536;53.194;5.728;2022-07-23T03:02:34;39.88;;;37.10;;
54641;SDS011;40536;53.194;5.728;2022-07-23T03:04:59;36.30;;;34.17;;
54641;SDS011;40536;53.194;5.728;2022-07-23T03:07:25;32.50;;;30.70;;
54641;SDS011;40536;53.194;5.728;2022-07-23T03:09:51;32.40;;;30.67;;
54641;SDS011;40536;53.194;5.728;2022-07-23T03:12:17;31.60;;;29.85;;
54641;SDS011;40536;53.194;5.728;2022-07-23T03:14:42;36.35;;;34.40;;
54641;SDS011;40536;53.194;5.728;2022-07-23T03:17:08;35.20;;;33.22;;
54641;SDS011;40536;53.194;5.728;2022-07-23T03:19:34;37.65;;;35.67;;
54641;SDS011;40536;53.194;5.728;2022-07-23T03:22:02;34.40;;;32.35;;
54641;SDS011;40536;53.194;5.728;2022-07-23T03:24:27;32.45;;;30.60;;
54641;SDS011;40536;53.194;5.728;2022-07-23T03:27:13;30.42;;;27.88;;
54641;SDS011;40536;53.194;5.728;2022-07-23T03:29:39;39.20;;;36.83;;
54641;SDS011;40536;53.194;5.728;2022-07-23T03:32:05;41.25;;;38.92;;
54641;SDS011;40536;53.194;5.728;2022-07-23T03:34:31;42.05;;;39.63;;
54641;SDS011;40536;53.194;5.728;2022-07-23T03:36:56;40.83;;;38.70;;
54641;SDS011;40536;53.194;5.728;2022-07-23T03:39:22;40.35;;;38.08;;
54641;SDS011;40536;53.194;5.728;2022-07-23T03:41:48;43.10;;;40.80;;
54641;SDS011;40536;53.194;5.728;2022-07-23T03:44:13;46.97;;;43.65;;
54641;SDS011;40536;53.194;5.728;2022-07-23T03:46:39;44.72;;;42.42;;
54641;SDS011;40536;53.194;5.728;2022-07-23T03:49:04;41.42;;;39.10;;
54641;SDS011;40536;53.194;5.728;2022-07-23T03:51:30;37.72;;;35.53;;
54641;SDS011;40536;53.194;5.728;2022-07-23T03:53:56;43.95;;;41.33;;
54641;SDS011;40536;53.194;5.728;2022-07-23T03:56:22;52.38;;;49.67;;
54641;SDS011;40536;53.194;5.728;2022-07-23T03:58:47;61.35;;;57.13;;
54641;SDS011;40536;53.194;5.728;2022-07-23T04:01:13;59.80;;;56.22;;
54641;SDS011;40536;53.194;5.728;2022-07-23T04:03:39;55.85;;;52.92;;
54641;SDS011;40536;53.194;5.728;2022-07-23T04:06:05;58.92;;;55.25;;
54641;SDS011;40536;53.194;5.728;2022-07-23T04:08:31;57.70;;;54.75;;
54641;SDS011;40536;53.194;5.728;2022-07-23T04:10:57;63.15;;;59.78;;
54641;SDS011;40536;53.194;5.728;2022-07-23T04:13:22;64.30;;;61.08;;
54641;SDS011;40536;53.194;5.728;2022-07-23T04:15:48;61.53;;;58.42;;
54641;SDS011;40536;53.194;5.728;2022-07-23T04:18:15;62.78;;;59.65;;
54641;SDS011;40536;53.194;5.728;2022-07-23T04:20:42;54.15;;;51.35;;
54641;SDS011;40536;53.194;5.728;2022-07-23T04:23:08;56.67;;;53.63;;
54641;SDS011;40536;53.194;5.728;2022-07-23T04:25:34;50.83;;;47.95;;
54641;SDS011;40536;53.194;5.728;2022-07-23T04:28:01;49.13;;;46.58;;
54641;SDS011;40536;53.194;5.728;2022-07-23T04:30:27;45.88;;;43.42;;
54641;SDS011;40536;53.194;5.728;2022-07-23T04:32:52;44.13;;;41.78;;
54641;SDS011;40536;53.194;5.728;2022-07-23T04:35:18;49.40;;;46.63;;
54641;SDS011;40536;53.194;5.728;2022-07-23T04:37:44;52.35;;;49.55;;
54641;SDS011;40536;53.194;5.728;2022-07-23T04:40:10;54.70;;;52.05;;
54641;SDS011;40536;53.194;5.728;2022-07-23T04:42:36;52.88;;;50.25;;
54641;SDS011;40536;53.194;5.728;2022-07-23T04:45:02;48.70;;;46.15;;
54641;SDS011;40536;53.194;5.728;2022-07-23T04:47:29;42.95;;;40.58;;
54641;SDS011;40536;53.194;5.728;2022-07-23T04:49:55;29.95;;;28.15;;
54641;SDS011;40536;53.194;5.728;2022-07-23T04:52:21;25.70;;;24.20;;
54641;SDS011;40536;53.194;5.728;2022-07-23T04:54:47;22.63;;;20.88;;
54641;SDS011;40536;53.194;5.728;2022-07-23T04:57:13;20.05;;;18.63;;
54641;SDS011;40536;53.194;5.728;2022-07-23T04:59:39;18.98;;;17.25;;
54641;SDS011;40536;53.194;5.728;2022-07-23T05:02:04;16.52;;;15.32;;
54641;SDS011;40536;53.194;5.728;2022-07-23T05:04:30;16.17;;;14.98;;
54641;SDS011;40536;53.194;5.728;2022-07-23T05:06:56;17.85;;;16.55;;
54641;SDS011;40536;53.194;5.728;2022-07-23T05:09:22;14.57;;;13.48;;
54641;SDS011;40536;53.194;5.728;2022-07-23T05:11:48;15.13;;;13.82;;
54641;SDS011;40536;53.194;5.728;2022-07-23T05:14:14;13.90;;;12.80;;
54641;SDS011;40536;53.194;5.728;2022-07-23T05:16:40;12.35;;;11.18;;
54641;SDS011;40536;53.194;5.728;2022-07-23T05:19:05;11.82;;;10.82;;
54641;SDS011;40536;53.194;5.728;2022-07-23T05:21:31;11.65;;;10.65;;
54641;SDS011;40536;53.194;5.728;2022-07-23T05:23:57;11.65;;;10.55;;
54641;SDS011;40536;53.194;5.728;2022-07-23T05:26:22;10.48;;;9.57;;
54641;SDS011;40536;53.194;5.728;2022-07-23T05:28:48;9.85;;;9.02;;
54641;SDS011;40536;53.194;5.728;2022-07-23T05:31:14;9.23;;;8.35;;
54641;SDS011;40536;53.194;5.728;2022-07-23T05:33:39;9.07;;;8.18;;
54641;SDS011;40536;53.194;5.728;2022-07-23T05:36:05;8.90;;;7.45;;
54641;SDS011;40536;53.194;5.728;2022-07-23T05:38:31;8.90;;;8.13;;
54641;SDS011;40536;53.194;5.728;2022-07-23T05:40:57;9.80;;;8.07;;
54641;SDS011;40536;53.194;5.728;2022-07-23T05:43:23;8.77;;;7.97;;
54641;SDS011;40536;53.194;5.728;2022-07-23T05:45:49;8.20;;;7.60;;
54641;SDS011;40536;53.194;5.728;2022-07-23T05:48:14;8.27;;;7.57;;
54641;SDS011;40536;53.194;5.728;2022-07-23T05:50:40;7.70;;;7.00;;
54641;SDS011;40536;53.194;5.728;2022-07-23T05:53:06;7.68;;;7.07;;
54641;SDS011;40536;53.194;5.728;2022-07-23T05:55:31;7.07;;;6.50;;
54641;SDS011;40536;53.194;5.728;2022-07-23T05:57:57;6.05;;;5.55;;
54641;SDS011;40536;53.194;5.728;2022-07-23T06:00:24;6.93;;;6.32;;
54641;SDS011;40536;53.194;5.728;2022-07-23T06:02:50;7.60;;;6.97;;
54641;SDS011;40536;53.194;5.728;2022-07-23T06:05:16;7.97;;;7.38;;
54641;SDS011;40536;53.194;5.728;2022-07-23T06:07:42;8.18;;;7.57;;
54641;SDS011;40536;53.194;5.728;2022-07-23T06:10:07;10.15;;;9.45;;
54641;SDS011;40536;53.194;5.728;2022-07-23T06:12:34;10.00;;;9.38;;
54641;SDS011;40536;53.194;5.728;2022-07-23T06:15:00;7.78;;;7.07;;
54641;SDS011;40536;53.194;5.728;2022-07-23T06:17:26;11.23;;;10.57;;
54641;SDS011;40536;53.194;5.728;2022-07-23T06:19:52;9.25;;;8.55;;
54641;SDS011;40536;53.194;5.728;2022-07-23T06:22:18;10.30;;;9.65;;
54641;SDS011;40536;53.194;5.728;2022-07-23T06:24:44;8.98;;;8.38;;
54641;SDS011;40536;53.194;5.728;2022-07-23T06:27:09;10.50;;;9.80;;
54641;SDS011;40536;53.194;5.728;2022-07-23T06:29:35;6.78;;;6.28;;
54641;SDS011;40536;53.194;5.728;2022-07-23T06:32:01;6.63;;;6.03;;
54641;SDS011;40536;53.194;5.728;2022-07-23T06:34:26;6.30;;;5.80;;
54641;SDS011;40536;53.194;5.728;2022-07-23T06:36:52;5.95;;;5.45;;
54641;SDS011;40536;53.194;5.728;2022-07-23T06:39:17;6.18;;;5.72;;
54641;SDS011;40536;53.194;5.728;2022-07-23T06:41:43;5.63;;;5.13;;
54641;SDS011;40536;53.194;5.728;2022-07-23T06:44:09;6.40;;;5.90;;
54641;SDS011;40536;53.194;5.728;2022-07-23T06:46:35;5.70;;;5.20;;
54641;SDS011;40536;53.194;5.728;2022-07-23T06:49:00;6.20;;;5.60;;
54641;SDS011;40536;53.194;5.728;2022-07-23T06:51:26;6.00;;;5.50;;
54641;SDS011;40536;53.194;5.728;2022-07-23T06:53:51;5.18;;;4.68;;
54641;SDS011;40536;53.194;5.728;2022-07-23T06:56:17;6.78;;;5.82;;
54641;SDS011;40536;53.194;5.728;2022-07-23T06:58:43;6.25;;;5.65;;
54641;SDS011;40536;53.194;5.728;2022-07-23T07:01:08;6.55;;;6.05;;
54641;SDS011;40536;53.194;5.728;2022-07-23T07:03:34;5.35;;;4.85;;
54641;SDS011;40536;53.194;5.728;2022-07-23T07:06:00;5.00;;;4.60;;
54641;SDS011;40536;53.194;5.728;2022-07-23T07:08:27;5.57;;;5.05;;
54641;SDS011;40536;53.194;5.728;2022-07-23T07:10:53;5.45;;;4.82;;
54641;SDS011;40536;53.194;5.728;2022-07-23T07:13:18;5.38;;;4.88;;
54641;SDS011;40536;53.194;5.728;2022-07-23T07:15:44;4.80;;;4.40;;
54641;SDS011;40536;53.194;5.728;2022-07-23T07:18:10;6.45;;;5.70;;
54641;SDS011;40536;53.194;5.728;2022-07-23T07:20:35;6.25;;;5.68;;
54641;SDS011;40536;53.194;5.728;2022-07-23T07:23:01;5.35;;;4.95;;
54641;SDS011;40536;53.194;5.728;2022-07-23T07:25:27;6.07;;;5.57;;
54641;SDS011;40536;53.194;5.728;2022-07-23T07:27:52;5.68;;;5.18;;
54641;SDS011;40536;53.194;5.728;2022-07-23T07:30:18;6.55;;;5.88;;
54641;SDS011;40536;53.194;5.728;2022-07-23T07:32:44;5.28;;;4.78;;
54641;SDS011;40536;53.194;5.728;2022-07-23T07:35:09;5.47;;;5.07;;
54641;SDS011;40536;53.194;5.728;2022-07-23T07:37:35;6.75;;;6.15;;
54641;SDS011;40536;53.194;5.728;2022-07-23T07:40:01;6.25;;;5.78;;
54641;SDS011;40536;53.194;5.728;2022-07-23T07:42:27;5.72;;;5.13;;
54641;SDS011;40536;53.194;5.728;2022-07-23T07:44:52;5.65;;;5.15;;
54641;SDS011;40536;53.194;5.728;2022-07-23T07:47:18;6.03;;;5.40;;
54641;SDS011;40536;53.194;5.728;2022-07-23T07:49:44;7.40;;;6.78;;
54641;SDS011;40536;53.194;5.728;2022-07-23T07:52:09;6.47;;;5.97;;
54641;SDS011;40536;53.194;5.728;2022-07-23T07:54:35;6.40;;;5.90;;
54641;SDS011;40536;53.194;5.728;2022-07-23T07:57:01;6.25;;;5.75;;
54641;SDS011;40536;53.194;5.728;2022-07-23T07:59:27;6.22;;;5.63;;
54641;SDS011;40536;53.194;5.728;2022-07-23T08:01:53;6.20;;;5.60;;
54641;SDS011;40536;53.194;5.728;2022-07-23T08:04:18;8.57;;;7.93;;
54641;SDS011;40536;53.194;5.728;2022-07-23T08:06:44;7.68;;;7.05;;
54641;SDS011;40536;53.194;5.728;2022-07-23T08:09:10;7.88;;;7.18;;
54641;SDS011;40536;53.194;5.728;2022-07-23T08:11:35;11.63;;;6.78;;
54641;SDS011;40536;53.194;5.728;2022-07-23T08:14:01;7.60;;;7.00;;
54641;SDS011;40536;53.194;5.728;2022-07-23T08:16:27;7.28;;;6.78;;
54641;SDS011;40536;53.194;5.728;2022-07-23T08:18:53;11.13;;;10.23;;
54641;SDS011;40536;53.194;5.728;2022-07-23T08:21:18;7.82;;;7.22;;
54641;SDS011;40536;53.194;5.728;2022-07-23T08:23:44;7.05;;;6.55;;
54641;SDS011;40536;53.194;5.728;2022-07-23T08:26:10;5.82;;;5.35;;
54641;SDS011;40536;53.194;5.728;2022-07-23T08:28:35;9.20;;;8.55;;
54641;SDS011;40536;53.194;5.728;2022-07-23T08:31:01;8.93;;;8.23;;
54641;SDS011;40536;53.194;5.728;2022-07-23T08:33:27;6.97;;;6.35;;
54641;SDS011;40536;53.194;5.728;2022-07-23T08:35:53;9.50;;;8.70;;
54641;SDS011;40536;53.194;5.728;2022-07-23T08:38:19;8.10;;;7.57;;
54641;SDS011;40536;53.194;5.728;2022-07-23T08:40:50;9.88;;;9.07;;
54641;SDS011;40536;53.194;5.728;2022-07-23T08:43:18;9.60;;;8.88;;
54641;SDS011;40536;53.194;5.728;2022-07-23T08:45:46;6.43;;;5.88;;
54641;SDS011;40536;53.194;5.728;2022-07-23T08:48:17;12.70;;;11.90;;
54641;SDS011;40536;53.194;5.728;2022-07-23T08:50:48;10.43;;;9.60;;
54641;SDS011;40536;53.194;5.728;2022-07-23T08:53:15;10.68;;;9.98;;
54641;SDS011;40536;53.194;5.728;2022-07-23T08:55:45;9.23;;;8.52;;
54641;SDS011;40536;53.194;5.728;2022-07-23T08:58:12;10.85;;;10.02;;
54641;SDS011;40536;53.194;5.728;2022-07-23T09:00:38;9.93;;;9.25;;
54641;SDS011;40536;53.194;5.728;2022-07-23T09:03:04;8.40;;;7.80;;
54641;SDS011;40536;53.194;5.728;2022-07-23T09:05:30;11.27;;;10.48;;
54641;SDS011;40536;53.194;5.728;2022-07-23T09:08:12;9.57;;;8.70;;
54641;SDS011;40536;53.194;5.728;2022-07-23T09:10:58;8.15;;;7.55;;
54641;SDS011;40536;53.194;5.728;2022-07-23T09:16:25;11.98;;;11.07;;
54641;SDS011;40536;53.194;5.728;2022-07-23T09:19:04;8.60;;;8.00;;
54641;SDS011;40536;53.194;5.728;2022-07-23T09:21:31;9.23;;;8.50;;
54641;SDS011;40536;53.194;5.728;2022-07-23T09:23:59;8.38;;;7.82;;
54641;SDS011;40536;53.194;5.728;2022-07-23T09:26:33;7.20;;;6.60;;
54641;SDS011;40536;53.194;5.728;2022-07-23T09:29:08;7.10;;;6.45;;
54641;SDS011;40536;53.194;5.728;2022-07-23T09:31:44;7.35;;;6.75;;
54641;SDS011;40536;53.194;5.728;2022-07-23T09:34:21;8.93;;;6.38;;
54641;SDS011;40536;53.194;5.728;2022-07-23T09:36:49;6.63;;;5.85;;
54641;SDS011;40536;53.194;5.728;2022-07-23T09:39:34;6.35;;;5.85;;
54641;SDS011;40536;53.194;5.728;2022-07-23T09:42:16;6.90;;;6.30;;
54641;SDS011;40536;53.194;5.728;2022-07-23T09:44:43;8.07;;;7.43;;
54641;SDS011;40536;53.194;5.728;2022-07-23T09:47:10;8.00;;;7.20;;
54641;SDS011;40536;53.194;5.728;2022-07-23T09:49:35;8.02;;;7.38;;
54641;SDS011;40536;53.194;5.728;2022-07-23T09:52:01;8.38;;;7.78;;
54641;SDS011;40536;53.194;5.728;2022-07-23T09:54:32;6.90;;;5.93;;
54641;SDS011;40536;53.194;5.728;2022-07-23T09:57:08;5.70;;;5.10;;
54641;SDS011;40536;53.194;5.728;2022-07-23T09:59:40;5.53;;;4.60;;
54641;SDS011;40536;53.194;5.728;2022-07-23T10:02:08;4.25;;;3.70;;
54641;SDS011;40536;53.194;5.728;2022-07-23T10:04:36;6.55;;;4.40;;
54641;SDS011;40536;53.194;5.728;2022-07-23T10:07:03;5.15;;;4.32;;
54641;SDS011;40536;53.194;5.728;2022-07-23T10:09:31;4.70;;;3.72;;
54641;SDS011;40536;53.194;5.728;2022-07-23T10:12:00;4.00;;;3.60;;
54641;SDS011;40536;53.194;5.728;2022-07-23T10:14:46;5.25;;;3.90;;
54641;SDS011;40536;53.194;5.728;2022-07-23T10:17:13;4.43;;;4.00;;
54641;SDS011;40536;53.194;5.728;2022-07-23T10:19:39;4.22;;;3.70;;
54641;SDS011;40536;53.194;5.728;2022-07-23T10:22:13;4.90;;;3.60;;
54641;SDS011;40536;53.194;5.728;2022-07-23T10:24:47;5.88;;;3.95;;
54641;SDS011;40536;53.194;5.728;2022-07-23T10:30:12;5.55;;;3.63;;
54641;SDS011;40536;53.194;5.728;2022-07-23T10:38:30;4.47;;;4.07;;
54641;SDS011;40536;53.194;5.728;2022-07-23T10:41:01;4.78;;;4.38;;
54641;SDS011;40536;53.194;5.728;2022-07-23T10:43:30;4.78;;;4.38;;
54641;SDS011;40536;53.194;5.728;2022-07-23T10:45:56;5.32;;;4.82;;
54641;SDS011;40536;53.194;5.728;2022-07-23T10:54:39;6.75;;;6.18;;
54641;SDS011;40536;53.194;5.728;2022-07-23T10:57:07;7.15;;;6.65;;
54641;SDS011;40536;53.194;5.728;2022-07-23T11:02:40;8.05;;;7.45;;
54641;SDS011;40536;53.194;5.728;2022-07-23T11:05:12;8.65;;;7.97;;
54641;SDS011;40536;53.194;5.728;2022-07-23T11:10:36;7.15;;;6.65;;
54641;SDS011;40536;53.194;5.728;2022-07-23T11:23:58;7.40;;;6.80;;
54641;SDS011;40536;53.194;5.728;2022-07-23T11:34:50;6.50;;;4.28;;
54641;SDS011;40536;53.194;5.728;2022-07-23T11:37:37;6.07;;;5.57;;
54641;SDS011;40536;53.194;5.728;2022-07-23T11:40:08;6.60;;;6.10;;
54641;SDS011;40536;53.194;5.728;2022-07-23T11:42:40;8.43;;;7.60;;
54641;SDS011;40536;53.194;5.728;2022-07-23T11:45:42;7.88;;;7.28;;
54641;SDS011;40536;53.194;5.728;2022-07-23T11:48:15;6.10;;;5.60;;
54641;SDS011;40536;53.194;5.728;2022-07-23T11:50:46;8.05;;;7.35;;
54641;SDS011;40536;53.194;5.728;2022-07-23T11:53:12;8.50;;;7.80;;
54641;SDS011;40536;53.194;5.728;2022-07-23T11:55:45;7.35;;;6.78;;
54641;SDS011;40536;53.194;5.728;2022-07-23T11:58:11;7.22;;;6.63;;
54641;SDS011;40536;53.194;5.728;2022-07-23T12:00:39;10.05;;;9.35;;
54641;SDS011;40536;53.194;5.728;2022-07-23T12:03:05;9.95;;;9.25;;
54641;SDS011;40536;53.194;5.728;2022-07-23T12:05:33;10.48;;;9.77;;
54641;SDS011;40536;53.194;5.728;2022-07-23T12:08:00;9.77;;;9.02;;
54641;SDS011;40536;53.194;5.728;2022-07-23T12:10:28;10.38;;;9.57;;
54641;SDS011;40536;53.194;5.728;2022-07-23T12:13:02;10.77;;;9.00;;
54641;SDS011;40536;53.194;5.728;2022-07-23T12:15:37;8.63;;;8.02;;
54641;SDS011;40536;53.194;5.728;2022-07-23T12:18:07;8.77;;;8.18;;
54641;SDS011;40536;53.194;5.728;2022-07-23T12:20:36;9.60;;;8.93;;
54641;SDS011;40536;53.194;5.728;2022-07-23T12:23:04;9.52;;;8.90;;
54641;SDS011;40536;53.194;5.728;2022-07-23T12:25:32;9.18;;;8.38;;
54641;SDS011;40536;53.194;5.728;2022-07-23T12:28:00;9.45;;;8.80;;
54641;SDS011;40536;53.194;5.728;2022-07-23T12:30:32;10.00;;;9.30;;
54641;SDS011;40536;53.194;5.728;2022-07-23T12:33:02;9.10;;;8.40;;
54641;SDS011;40536;53.194;5.728;2022-07-23T12:35:33;9.88;;;9.18;;
54641;SDS011;40536;53.194;5.728;2022-07-23T12:38:05;10.38;;;9.65;;
54641;SDS011;40536;53.194;5.728;2022-07-23T12:40:37;11.02;;;10.32;;
54641;SDS011;40536;53.194;5.728;2022-07-23T12:43:10;11.93;;;10.95;;
54641;SDS011;40536;53.194;5.728;2022-07-23T12:48:33;9.68;;;9.07;;
54641;SDS011;40536;53.194;5.728;2022-07-23T12:51:04;9.20;;;8.50;;
54641;SDS011;40536;53.194;5.728;2022-07-23T12:53:43;10.13;;;9.48;;
54641;SDS011;40536;53.194;5.728;2022-07-23T12:56:15;8.77;;;8.07;;
54641;SDS011;40536;53.194;5.728;2022-07-23T13:06:24;9.10;;;8.50;;
54641;SDS011;40536;53.194;5.728;2022-07-23T13:08:51;11.45;;;10.45;;
54641;SDS011;40536;53.194;5.728;2022-07-23T13:11:17;8.73;;;8.13;;
54641;SDS011;40536;53.194;5.728;2022-07-23T13:13:42;9.00;;;8.40;;
54641;SDS011;40536;53.194;5.728;2022-07-23T13:16:08;8.95;;;8.18;;
54641;SDS011;40536;53.194;5.728;2022-07-23T13:18:33;10.10;;;9.48;;
54641;SDS011;40536;53.194;5.728;2022-07-23T13:20:59;10.95;;;10.23;;
54641;SDS011;40536;53.194;5.728;2022-07-23T13:23:25;10.63;;;9.85;;
54641;SDS011;40536;53.194;5.728;2022-07-23T13:25:51;9.40;;;8.57;;
54641;SDS011;40536;53.194;5.728;2022-07-23T13:28:18;11.75;;;10.95;;
54641;SDS011;40536;53.194;5.728;2022-07-23T13:30:45;12.52;;;11.63;;
54641;SDS011;40536;53.194;5.728;2022-07-23T13:33:12;11.98;;;11.18;;
54641;SDS011;40536;53.194;5.728;2022-07-23T13:35:38;11.32;;;10.52;;
54641;SDS011;40536;53.194;5.728;2022-07-23T13:38:04;10.45;;;9.75;;
54641;SDS011;40536;53.194;5.728;2022-07-23T13:40:32;10.60;;;9.90;;
54641;SDS011;40536;53.194;5.728;2022-07-23T13:42:59;8.93;;;8.32;;
54641;SDS011;40536;53.194;5.728;2022-07-23T13:45:25;12.65;;;11.85;;
54641;SDS011;40536;53.194;5.728;2022-07-23T13:47:51;11.35;;;10.45;;
54641;SDS011;40536;53.194;5.728;2022-07-23T13:50:17;12.95;;;12.15;;
54641;SDS011;40536;53.194;5.728;2022-07-23T13:52:43;11.98;;;11.10;;
54641;SDS011;40536;53.194;5.728;2022-07-23T13:55:09;10.45;;;9.63;;
54641;SDS011;40536;53.194;5.728;2022-07-23T13:57:35;9.85;;;9.15;;
54641;SDS011;40536;53.194;5.728;2022-07-23T14:00:02;9.25;;;8.55;;
54641;SDS011;40536;53.194;5.728;2022-07-23T14:02:29;10.68;;;9.77;;
54641;SDS011;40536;53.194;5.728;2022-07-23T14:04:54;10.32;;;9.63;;
54641;SDS011;40536;53.194;5.728;2022-07-23T14:07:21;11.25;;;10.27;;
54641;SDS011;40536;53.194;5.728;2022-07-23T14:09:47;12.15;;;11.25;;
54641;SDS011;40536;53.194;5.728;2022-07-23T14:12:14;11.55;;;10.68;;
54641;SDS011;40536;53.194;5.728;2022-07-23T14:14:39;12.10;;;11.23;;
54641;SDS011;40536;53.194;5.728;2022-07-23T14:17:05;11.77;;;10.98;;
54641;SDS011;40536;53.194;5.728;2022-07-23T14:19:31;12.05;;;11.18;;
54641;SDS011;40536;53.194;5.728;2022-07-23T14:21:57;10.60;;;9.60;;
54641;SDS011;40536;53.194;5.728;2022-07-23T14:24:22;11.48;;;10.30;;
54641;SDS011;40536;53.194;5.728;2022-07-23T14:26:48;10.27;;;9.55;;
54641;SDS011;40536;53.194;5.728;2022-07-23T14:29:13;10.73;;;9.73;;
54641;SDS011;40536;53.194;5.728;2022-07-23T14:31:39;13.35;;;12.48;;
54641;SDS011;40536;53.194;5.728;2022-07-23T14:34:05;12.07;;;11.07;;
54641;SDS011;40536;53.194;5.728;2022-07-23T14:36:30;11.77;;;10.90;;
54641;SDS011;40536;53.194;5.728;2022-07-23T14:38:56;11.75;;;10.93;;
54641;SDS011;40536;53.194;5.728;2022-07-23T14:41:22;12.93;;;11.98;;
54641;SDS011;40536;53.194;5.728;2022-07-23T14:43:47;14.30;;;13.40;;
54641;SDS011;40536;53.194;5.728;2022-07-23T14:46:13;13.48;;;12.57;;
54641;SDS011;40536;53.194;5.728;2022-07-23T14:48:39;11.63;;;10.48;;
54641;SDS011;40536;53.194;5.728;2022-07-23T14:51:05;14.15;;;13.10;;
54641;SDS011;40536;53.194;5.728;2022-07-23T14:53:30;11.25;;;10.45;;
54641;SDS011;40536;53.194;5.728;2022-07-23T14:55:56;9.93;;;9.23;;
54641;SDS011;40536;53.194;5.728;2022-07-23T14:58:22;11.18;;;10.38;;
54641;SDS011;40536;53.194;5.728;2022-07-23T15:00:48;12.85;;;11.95;;
54641;SDS011;40536;53.194;5.728;2022-07-23T15:03:15;11.98;;;10.88;;
54641;SDS011;40536;53.194;5.728;2022-07-23T15:05:41;9.77;;;9.07;;
54641;SDS011;40536;53.194;5.728;2022-07-23T15:08:06;12.77;;;11.88;;
54641;SDS011;40536;53.194;5.728;2022-07-23T15:10:32;12.25;;;11.35;;
54641;SDS011;40536;53.194;5.728;2022-07-23T15:12:58;10.82;;;10.13;;
54641;SDS011;40536;53.194;5.728;2022-07-23T15:15:23;12.05;;;11.18;;
54641;SDS011;40536;53.194;5.728;2022-07-23T15:17:49;11.20;;;10.40;;
54641;SDS011;40536;53.194;5.728;2022-07-23T15:20:14;9.80;;;9.10;;
54641;SDS011;40536;53.194;5.728;2022-07-23T15:22:40;11.65;;;10.85;;
54641;SDS011;40536;53.194;5.728;2022-07-23T15:25:06;11.90;;;11.07;;
54641;SDS011;40536;53.194;5.728;2022-07-23T15:27:32;11.60;;;10.70;;